createdAt,value
2023-05-20T00:00:50.519Z,13.70
2023-05-20T00:03:18.040Z,13.70
2023-05-20T00:05:45.048Z,13.70
2023-05-20T00:08:12.340Z,13.70
2023-05-20T00:10:39.538Z,13.70
2023-05-20T00:13:06.894Z,13.70
2023-05-20T00:15:37.063Z,13.60
2023-05-20T00:18:05.055Z,13.60
2023-05-20T00:20:32.752Z,13.60
2023-05-20T00:22:59.627Z,13.60
2023-05-20T00:25:26.868Z,13.70
2023-05-20T00:27:53.791Z,13.70
2023-05-20T00:30:20.880Z,13.70
2023-05-20T00:32:48.221Z,13.70
2023-05-20T00:35:15.336Z,13.70
2023-05-20T00:37:43.303Z,13.70
2023-05-20T00:40:11.013Z,13.70
2023-05-20T00:42:39.662Z,13.70
2023-05-20T00:45:07.089Z,13.70
2023-05-20T00:47:36.537Z,13.70
2023-05-20T00:50:04.475Z,13.70
2023-05-20T00:52:32.765Z,13.70
2023-05-20T00:55:00.216Z,13.70
2023-05-20T00:57:27.599Z,13.70
2023-05-20T00:59:54.895Z,13.60
2023-05-20T01:02:22.778Z,13.70
2023-05-20T01:04:50.710Z,13.70
2023-05-20T01:07:18.648Z,13.70
2023-05-20T01:09:46.721Z,13.70
2023-05-20T01:12:18.257Z,13.70
2023-05-20T01:15:01.756Z,13.70
2023-05-20T01:17:33.230Z,13.70
2023-05-20T01:20:04.252Z,13.70
2023-05-20T01:22:31.500Z,13.70
2023-05-20T01:24:58.498Z,13.70
2023-05-20T01:27:26.636Z,14.50
2023-05-20T01:29:54.320Z,13.70
2023-05-20T01:32:34.939Z,13.70
2023-05-20T01:35:03.068Z,13.70
2023-05-20T01:37:31.478Z,13.70
2023-05-20T01:39:58.833Z,13.70
2023-05-20T01:42:28.087Z,13.70
2023-05-20T01:44:55.432Z,13.70
2023-05-20T01:47:22.451Z,13.70
2023-05-20T01:49:49.649Z,13.70
2023-05-20T01:52:17.305Z,13.60
2023-05-20T01:54:50.889Z,13.60
2023-05-20T01:57:22.802Z,13.60
2023-05-20T01:59:51.349Z,13.60
2023-05-20T02:02:18.453Z,13.60
2023-05-20T02:04:49.579Z,13.60
2023-05-20T02:07:18.831Z,13.60
2023-05-20T02:09:46.772Z,13.70
2023-05-20T02:12:17.129Z,13.70
2023-05-20T02:14:45.501Z,13.70
2023-05-20T02:17:14.590Z,13.60
2023-05-20T02:19:42.745Z,13.70
2023-05-20T02:22:09.749Z,13.60
2023-05-20T02:24:36.932Z,13.70
2023-05-20T02:27:04.824Z,13.70
2023-05-20T02:29:35.254Z,13.70
2023-05-20T02:32:02.380Z,13.70
2023-05-20T02:34:30.923Z,13.70
2023-05-20T02:36:57.870Z,13.70
2023-05-20T02:39:25.165Z,13.70
2023-05-20T02:41:52.146Z,13.70
2023-05-20T02:44:19.016Z,13.60
2023-05-20T02:46:45.892Z,13.60
2023-05-20T02:49:12.799Z,13.60
2023-05-20T02:51:40.913Z,13.60
2023-05-20T02:54:07.876Z,13.60
2023-05-20T02:56:34.872Z,13.60
2023-05-20T02:59:04.896Z,13.70
2023-05-20T03:01:33.753Z,13.60
2023-05-20T03:06:30.162Z,13.60
2023-05-20T03:08:57.101Z,13.70
2023-05-20T03:11:24.669Z,13.60
2023-05-20T03:13:51.890Z,13.60
2023-05-20T03:16:18.968Z,13.70
2023-05-20T03:18:46.377Z,13.70
2023-05-20T03:21:13.876Z,13.70
2023-05-20T03:23:40.933Z,13.60
2023-05-20T03:26:08.527Z,13.70
2023-05-20T03:28:36.507Z,13.70
2023-05-20T03:31:04.469Z,13.70
2023-05-20T03:33:34.040Z,13.60
2023-05-20T03:36:01.713Z,13.60
2023-05-20T03:38:28.637Z,13.60
2023-05-20T03:40:55.692Z,13.60
2023-05-20T03:43:22.754Z,13.60
2023-05-20T03:45:49.657Z,13.60
2023-05-20T03:48:16.760Z,13.60
2023-05-20T03:50:43.692Z,13.60
2023-05-20T03:53:11.198Z,13.60
2023-05-20T03:55:41.566Z,13.60
2023-05-20T03:58:09.532Z,13.60
2023-05-20T04:00:36.422Z,13.60
2023-05-20T04:03:03.575Z,13.60
2023-05-20T04:05:30.838Z,13.60
2023-05-20T04:07:58.190Z,13.60
2023-05-20T04:10:25.487Z,13.60
2023-05-20T04:12:53.933Z,13.60
2023-05-20T04:15:23.869Z,13.60
2023-05-20T04:17:56.628Z,13.60
2023-05-20T04:20:24.458Z,13.60
2023-05-20T04:22:55.264Z,13.60
2023-05-20T04:25:22.464Z,13.60
2023-05-20T04:27:49.971Z,13.60
2023-05-20T04:30:18.576Z,13.60
2023-05-20T04:32:45.645Z,13.50
2023-05-20T04:35:13.922Z,13.50
2023-05-20T04:40:20.992Z,13.60
2023-05-20T04:42:47.915Z,13.60
2023-05-20T04:45:15.670Z,13.60
2023-05-20T04:47:44.339Z,13.60
2023-05-20T04:50:12.229Z,13.60
2023-05-20T04:52:43.130Z,13.60
2023-05-20T04:55:11.848Z,13.60
2023-05-20T04:57:42.048Z,13.70
2023-05-20T05:00:10.860Z,13.60
2023-05-20T05:02:38.295Z,13.70
2023-05-20T05:05:05.769Z,13.60
2023-05-20T05:07:32.836Z,13.70
2023-05-20T05:09:59.761Z,13.70
2023-05-20T05:12:29.379Z,13.70
2023-05-20T05:14:57.628Z,13.70
2023-05-20T05:17:25.212Z,13.70
2023-05-20T05:19:52.194Z,13.80
2023-05-20T05:22:19.167Z,13.80
2023-05-20T05:24:46.087Z,13.80
2023-05-20T05:27:13.048Z,13.80
2023-05-20T05:29:40.073Z,13.80
2023-05-20T05:32:07.341Z,13.80
2023-05-20T05:34:34.316Z,13.90
2023-05-20T05:37:01.279Z,13.90
2023-05-20T05:39:28.235Z,13.90
2023-05-20T05:41:56.740Z,13.90
2023-05-20T05:44:24.808Z,13.90
2023-05-20T05:46:51.779Z,13.90
2023-05-20T05:49:19.017Z,14.00
2023-05-20T05:51:46.008Z,14.00
2023-05-20T05:54:13.409Z,14.00
2023-05-20T05:59:08.473Z,14.10
2023-05-20T06:04:05.152Z,14.10
2023-05-20T06:08:59.836Z,14.10
2023-05-20T06:11:27.191Z,14.20
2023-05-20T06:13:54.176Z,14.30
2023-05-20T06:16:21.783Z,14.30
2023-05-20T06:18:51.547Z,14.30
2023-05-20T06:21:18.677Z,14.40
2023-05-20T06:23:45.718Z,14.30
2023-05-20T06:26:13.595Z,14.30
2023-05-20T06:28:40.619Z,14.40
2023-05-20T06:31:08.937Z,14.40
2023-05-20T06:33:36.709Z,14.40
2023-05-20T06:36:08.479Z,14.40
2023-05-20T06:38:35.427Z,14.40
2023-05-20T06:41:02.666Z,14.40
2023-05-20T06:43:30.626Z,14.50
2023-05-20T06:46:23.682Z,14.50
2023-05-20T06:48:55.394Z,14.50
2023-05-20T06:51:22.559Z,14.60
2023-05-20T06:53:50.802Z,14.60
2023-05-20T06:56:17.700Z,14.60
2023-05-20T06:58:45.075Z,14.70
2023-05-20T07:01:12.166Z,14.70
2023-05-20T07:03:40.469Z,14.70
2023-05-20T07:06:07.833Z,14.70
2023-05-20T07:08:35.138Z,14.70
2023-05-20T07:13:30.689Z,14.70
2023-05-20T07:15:58.733Z,15.00
2023-05-20T07:18:26.717Z,14.70
2023-05-20T07:20:57.121Z,14.70
2023-05-20T07:23:37.105Z,14.80
2023-05-20T07:26:04.177Z,14.80
2023-05-20T07:28:31.466Z,14.80
2023-05-20T07:31:00.329Z,14.80
2023-05-20T07:33:29.939Z,14.80
2023-05-20T07:35:57.184Z,14.80
2023-05-20T07:38:24.624Z,14.70
2023-05-20T07:40:57.236Z,14.70
2023-05-20T07:43:24.627Z,14.70
2023-05-20T07:45:51.723Z,14.70
2023-05-20T07:48:18.659Z,14.70
2023-05-20T07:53:13.447Z,14.70
2023-05-20T07:58:07.784Z,14.70
2023-05-20T08:00:36.032Z,14.70
2023-05-20T08:03:08.154Z,14.70
2023-05-20T08:06:14.258Z,14.70
2023-05-20T08:08:43.162Z,14.60
2023-05-20T08:11:18.032Z,14.60
2023-05-20T08:13:45.144Z,14.60
2023-05-20T08:16:12.172Z,14.60
2023-05-20T08:18:39.480Z,14.60
2023-05-20T08:21:10.014Z,14.60
2023-05-20T08:23:39.649Z,14.60
2023-05-20T08:26:07.752Z,14.60
2023-05-20T08:28:38.353Z,14.60
2023-05-20T08:31:05.435Z,14.60
2023-05-20T08:33:33.405Z,14.70
2023-05-20T08:36:00.846Z,14.70
2023-05-20T08:38:29.382Z,14.70
2023-05-20T08:40:57.823Z,14.70
2023-05-20T08:43:26.240Z,14.80
2023-05-20T08:45:53.524Z,14.80
2023-05-20T08:48:25.757Z,14.90
2023-05-20T08:50:53.675Z,14.90
2023-05-20T08:53:23.829Z,14.90
2023-05-20T08:55:55.553Z,15.00
2023-05-20T08:58:23.537Z,14.90
2023-05-20T09:00:51.291Z,14.90
2023-05-20T09:03:18.575Z,14.90
2023-05-20T09:05:45.554Z,14.90
2023-05-20T09:08:12.787Z,14.80
2023-05-20T09:10:41.923Z,14.90
2023-05-20T09:13:10.043Z,14.80
2023-05-20T09:15:37.660Z,14.80
2023-05-20T09:18:06.369Z,14.90
2023-05-20T09:20:37.159Z,14.80
2023-05-20T09:23:09.136Z,14.90
2023-05-20T09:25:36.893Z,14.90
2023-05-20T09:28:10.262Z,14.90
2023-05-20T09:30:37.254Z,15.00
2023-05-20T09:33:05.826Z,15.00
2023-05-20T09:35:37.516Z,15.00
2023-05-20T09:38:07.542Z,15.00
2023-05-20T09:40:37.710Z,15.10
2023-05-20T09:43:08.756Z,15.20
2023-05-20T09:45:36.456Z,15.20
2023-05-20T09:48:05.754Z,15.30
2023-05-20T09:50:33.240Z,15.30
2023-05-20T09:53:03.600Z,15.40
2023-05-20T09:55:30.959Z,15.40
2023-05-20T09:58:02.079Z,15.40
2023-05-20T10:00:29.076Z,15.80
2023-05-20T10:02:57.040Z,15.50
2023-05-20T10:05:38.954Z,15.50
2023-05-20T10:08:11.901Z,15.60
2023-05-20T10:13:19.693Z,15.60
2023-05-20T10:15:55.677Z,15.70
2023-05-20T10:18:34.422Z,15.70
2023-05-20T10:21:01.424Z,15.70
2023-05-20T10:23:30.027Z,15.70
2023-05-20T10:25:58.719Z,15.80
2023-05-20T10:28:33.778Z,15.80
2023-05-20T10:31:00.973Z,15.70
2023-05-20T10:33:28.516Z,15.80
2023-05-20T10:35:59.248Z,15.80
2023-05-20T10:38:26.556Z,15.80
2023-05-20T10:40:53.789Z,15.80
2023-05-20T10:43:28.747Z,15.80
2023-05-20T10:45:57.698Z,15.80
2023-05-20T10:48:26.017Z,15.70
2023-05-20T10:51:03.951Z,15.70
2023-05-20T10:53:39.574Z,15.70
2023-05-20T10:56:06.872Z,15.70
2023-05-20T10:58:39.115Z,15.60
2023-05-20T11:01:06.549Z,15.60
2023-05-20T11:03:36.160Z,15.60
2023-05-20T11:06:11.909Z,15.60
2023-05-20T11:08:39.188Z,15.50
2023-05-20T11:11:06.972Z,15.60
2023-05-20T11:13:34.153Z,15.60
2023-05-20T11:16:01.887Z,15.60
2023-05-20T11:20:59.990Z,15.60
2023-05-20T11:23:28.719Z,15.60
2023-05-20T11:25:57.319Z,15.70
2023-05-20T11:28:24.498Z,15.80
2023-05-20T11:30:52.773Z,15.80
2023-05-20T11:33:20.170Z,15.90
2023-05-20T11:35:49.682Z,15.90
2023-05-20T11:38:17.507Z,15.90
2023-05-20T11:40:55.256Z,16.00
2023-05-20T11:43:24.173Z,16.00
2023-05-20T11:46:01.601Z,16.00
2023-05-20T11:48:28.832Z,16.10
2023-05-20T11:50:56.934Z,16.10
2023-05-20T11:53:25.313Z,16.10
2023-05-20T11:56:00.408Z,16.10
2023-05-20T11:58:32.040Z,16.10
2023-05-20T12:01:09.650Z,16.10
2023-05-20T12:03:46.695Z,16.20
2023-05-20T12:06:13.825Z,16.20
2023-05-20T12:08:40.876Z,16.20
2023-05-20T12:11:07.810Z,16.20
2023-05-20T12:16:02.851Z,16.20
2023-05-20T12:18:29.797Z,16.20
2023-05-20T12:20:56.740Z,16.20
2023-05-20T12:23:23.740Z,16.20
2023-05-20T12:25:50.911Z,16.20
2023-05-20T12:28:18.103Z,16.20
2023-05-20T12:30:44.985Z,16.20
2023-05-20T12:33:11.882Z,16.20
2023-05-20T12:35:39.807Z,16.20
2023-05-20T12:38:07.320Z,16.20
2023-05-20T12:40:35.663Z,16.20
2023-05-20T12:43:04.464Z,16.20
2023-05-20T12:45:31.665Z,16.20
2023-05-20T12:47:59.074Z,16.20
2023-05-20T12:50:27.333Z,16.20
2023-05-20T12:52:54.290Z,16.20
2023-05-20T12:55:21.257Z,16.20
2023-05-20T12:57:48.421Z,16.30
2023-05-20T13:00:15.962Z,16.30
2023-05-20T13:02:43.576Z,16.30
2023-05-20T13:05:11.285Z,16.30
2023-05-20T13:07:38.420Z,16.30
2023-05-20T13:10:07.139Z,16.30
2023-05-20T13:12:37.652Z,16.30
2023-05-20T13:15:05.313Z,16.20
2023-05-20T13:17:32.500Z,16.20
2023-05-20T13:19:59.501Z,16.20
2023-05-20T13:22:26.397Z,16.20
2023-05-20T13:24:53.276Z,16.20
2023-05-20T13:27:20.134Z,16.20
2023-05-20T13:29:47.373Z,16.20
2023-05-20T13:32:14.290Z,16.20
2023-05-20T13:34:41.312Z,16.20
2023-05-20T13:37:08.289Z,16.20
2023-05-20T13:39:35.581Z,16.20
2023-05-20T13:42:02.754Z,16.30
2023-05-20T13:44:30.751Z,16.30
2023-05-20T13:46:59.457Z,16.30
2023-05-20T13:51:53.775Z,16.20
2023-05-20T13:54:21.819Z,16.20
2023-05-20T13:56:49.108Z,16.20
2023-05-20T13:59:16.360Z,16.30
2023-05-20T14:01:45.255Z,16.30
2023-05-20T14:04:12.913Z,16.30
2023-05-20T14:06:40.490Z,16.30
2023-05-20T14:09:09.188Z,16.40
2023-05-20T14:11:36.306Z,16.30
2023-05-20T14:14:03.278Z,16.30
2023-05-20T14:16:31.875Z,16.30
2023-05-20T14:18:59.002Z,16.30
2023-05-20T14:21:26.023Z,16.40
2023-05-20T14:23:53.018Z,16.40
2023-05-20T14:26:20.080Z,16.30
2023-05-20T14:28:47.098Z,16.30
2023-05-20T14:31:14.073Z,16.40
2023-05-20T14:33:41.046Z,16.40
2023-05-20T14:36:08.034Z,16.40
2023-05-20T14:38:34.893Z,16.40
2023-05-20T14:41:01.840Z,16.40
2023-05-20T14:43:28.803Z,16.40
2023-05-20T14:45:55.808Z,16.30
2023-05-20T14:48:22.739Z,16.30
2023-05-20T14:50:50.028Z,16.40
2023-05-20T14:53:17.652Z,16.30
2023-05-20T14:55:44.723Z,16.30
2023-05-20T14:58:12.055Z,16.30
2023-05-20T15:00:39.479Z,16.30
2023-05-20T15:03:06.943Z,16.30
2023-05-20T15:05:33.968Z,16.30
2023-05-20T15:08:01.115Z,16.30
2023-05-20T15:10:28.012Z,16.30
2023-05-20T15:12:55.279Z,16.30
2023-05-20T15:15:22.501Z,16.30
2023-05-20T15:17:49.469Z,16.30
2023-05-20T15:20:16.453Z,16.30
2023-05-20T15:22:47.970Z,16.30
2023-05-20T15:25:15.187Z,16.30
2023-05-20T15:27:42.315Z,16.30
2023-05-20T15:30:10.082Z,16.30
2023-05-20T15:32:37.050Z,16.40
2023-05-20T15:35:04.415Z,16.40
2023-05-20T15:37:31.397Z,16.40
2023-05-20T15:39:58.259Z,16.40
2023-05-20T15:44:52.450Z,16.40
2023-05-20T15:47:19.821Z,16.40
2023-05-20T15:49:46.861Z,16.40
2023-05-20T15:52:14.144Z,16.40
2023-05-20T15:54:41.263Z,16.40
2023-05-20T15:57:08.367Z,16.30
2023-05-20T15:59:35.587Z,16.30
2023-05-20T16:02:02.558Z,16.30
2023-05-20T16:04:29.698Z,16.20
2023-05-20T16:06:56.677Z,16.20
2023-05-20T16:09:23.545Z,16.20
2023-05-20T16:11:50.468Z,16.20
2023-05-20T16:14:17.467Z,16.20
2023-05-20T16:16:44.600Z,16.10
2023-05-20T16:19:11.641Z,16.10
2023-05-20T16:21:38.657Z,16.20
2023-05-20T16:24:05.692Z,16.20
2023-05-20T16:26:32.621Z,16.30
2023-05-20T16:28:59.505Z,16.30
2023-05-20T16:31:26.797Z,16.30
2023-05-20T16:33:53.768Z,16.40
2023-05-20T16:36:21.640Z,16.40
2023-05-20T16:42:08.913Z,16.40
2023-05-20T16:44:38.881Z,16.50
2023-05-20T16:47:06.556Z,16.40
2023-05-20T16:49:33.844Z,16.50
2023-05-20T16:52:01.144Z,16.50
2023-05-20T16:54:28.156Z,16.50
2023-05-20T16:56:55.061Z,16.50
2023-05-20T16:59:24.738Z,16.50
2023-05-20T17:01:51.639Z,16.50
2023-05-20T17:04:18.634Z,16.50
2023-05-20T17:06:45.512Z,16.60
2023-05-20T17:09:12.437Z,16.60
2023-05-20T17:11:39.524Z,16.60
2023-05-20T17:14:06.450Z,16.50
2023-05-20T17:16:33.866Z,16.60
2023-05-20T17:19:00.879Z,16.60
2023-05-20T17:21:27.821Z,16.60
2023-05-20T17:23:54.699Z,16.50
2023-05-20T17:26:22.531Z,16.60
2023-05-20T17:28:49.553Z,16.60
2023-05-20T17:31:16.647Z,16.60
2023-05-20T17:33:43.714Z,16.60
2023-05-20T17:36:10.646Z,16.60
2023-05-20T17:38:37.545Z,16.60
2023-05-20T17:41:04.530Z,16.60
2023-05-20T17:43:31.529Z,16.60
2023-05-20T17:45:58.735Z,16.60
2023-05-20T17:48:25.735Z,16.60
2023-05-20T17:50:52.738Z,16.60
2023-05-20T17:53:21.961Z,16.60
2023-05-20T17:55:49.418Z,16.60
2023-05-20T17:58:16.961Z,16.60
2023-05-20T18:03:11.601Z,16.60
2023-05-20T18:05:38.754Z,16.60
2023-05-20T18:08:06.003Z,16.60
2023-05-20T18:10:33.016Z,16.50
2023-05-20T18:13:00.120Z,16.60
2023-05-20T18:15:27.337Z,16.50
2023-05-20T18:17:55.285Z,16.50
2023-05-20T18:20:22.612Z,16.50
2023-05-20T18:22:52.396Z,16.50
2023-05-20T18:25:19.631Z,16.40
2023-05-20T18:27:46.823Z,16.40
2023-05-20T18:30:13.935Z,16.40
2023-05-20T18:32:41.361Z,16.40
2023-05-20T18:35:09.243Z,16.40
2023-05-20T18:37:36.677Z,16.30
2023-05-20T18:42:33.659Z,16.30
2023-05-20T18:45:01.226Z,16.30
2023-05-20T18:47:28.755Z,16.30
2023-05-20T18:49:55.967Z,16.30
2023-05-20T18:52:23.252Z,16.30
2023-05-20T18:54:50.476Z,16.20
2023-05-20T18:57:17.551Z,16.20
2023-05-20T18:59:44.732Z,16.20
2023-05-20T19:02:11.848Z,16.20
2023-05-20T19:04:38.932Z,16.20
2023-05-20T19:07:06.388Z,16.20
2023-05-20T19:12:01.186Z,16.10
2023-05-20T19:14:28.252Z,16.20
2023-05-20T19:16:55.685Z,16.10
2023-05-20T19:19:24.028Z,16.10
2023-05-20T19:21:52.723Z,16.00
2023-05-20T19:24:20.174Z,16.00
2023-05-20T19:26:48.324Z,16.00
2023-05-20T19:29:15.520Z,16.00
2023-05-20T19:31:43.225Z,16.00
2023-05-20T19:34:10.863Z,16.00
2023-05-20T19:36:38.403Z,15.90
2023-05-20T19:39:05.797Z,16.00
2023-05-20T19:41:32.730Z,15.80
2023-05-20T19:44:00.518Z,15.90
2023-05-20T19:46:27.739Z,15.80
2023-05-20T19:48:54.800Z,15.70
2023-05-20T19:51:22.350Z,15.80
2023-05-20T19:53:49.786Z,15.80
2023-05-20T19:56:19.596Z,15.70
2023-05-20T19:58:47.053Z,15.70
2023-05-20T20:01:14.909Z,15.70
2023-05-20T20:03:42.665Z,15.70
2023-05-20T20:06:10.447Z,15.60
2023-05-20T20:08:39.434Z,15.60
2023-05-20T20:11:07.393Z,15.60
2023-05-20T20:13:34.569Z,15.60
2023-05-20T20:16:01.608Z,15.60
2023-05-20T20:18:28.620Z,15.60
2023-05-20T20:20:55.494Z,15.50
2023-05-20T20:23:22.423Z,15.50
2023-05-20T20:25:50.592Z,15.50
2023-05-20T20:28:17.488Z,15.50
2023-05-20T20:30:44.451Z,15.50
2023-05-20T20:33:11.553Z,15.40
2023-05-20T20:35:38.678Z,15.40
2023-05-20T20:38:09.644Z,15.40
2023-05-20T20:40:44.807Z,15.40
2023-05-20T20:43:20.534Z,15.40
2023-05-20T20:45:50.981Z,15.40
2023-05-20T20:48:18.938Z,15.30
2023-05-20T20:50:47.881Z,15.30
2023-05-20T20:53:18.016Z,15.30
2023-05-20T20:55:48.409Z,15.30
2023-05-20T20:58:15.760Z,15.30
2023-05-20T21:00:45.035Z,15.30
2023-05-20T21:03:13.441Z,15.20
2023-05-20T21:05:40.520Z,15.20
2023-05-20T21:08:08.553Z,15.20
2023-05-20T21:10:37.176Z,15.20
2023-05-20T21:13:04.455Z,15.20
2023-05-20T21:15:31.372Z,15.10
2023-05-20T21:17:58.498Z,15.10
2023-05-20T21:20:25.472Z,15.10
2023-05-20T21:22:52.366Z,15.10
2023-05-20T21:25:19.258Z,15.10
2023-05-20T21:27:46.340Z,15.10
2023-05-20T21:30:13.458Z,15.00
2023-05-20T21:32:40.358Z,15.00
2023-05-20T21:35:08.035Z,15.00
2023-05-20T21:37:34.944Z,15.00
2023-05-20T21:40:02.006Z,15.00
2023-05-20T21:42:29.048Z,15.00
2023-05-20T21:44:55.973Z,15.00
2023-05-20T21:47:22.910Z,15.00
2023-05-20T21:49:49.849Z,15.00
2023-05-20T21:52:16.732Z,14.90
2023-05-20T21:54:43.689Z,14.90
2023-05-20T21:57:10.541Z,14.90
2023-05-20T21:59:37.450Z,14.90
2023-05-20T22:02:04.495Z,14.90
2023-05-20T22:04:33.465Z,14.90
2023-05-20T22:07:01.471Z,14.90
2023-05-20T22:09:28.429Z,14.90
2023-05-20T22:11:56.209Z,14.90
2023-05-20T22:14:23.556Z,14.80
2023-05-20T22:16:50.569Z,14.80
2023-05-20T22:19:18.066Z,14.80
2023-05-20T22:21:50.583Z,14.80
2023-05-20T22:24:18.304Z,14.70
2023-05-20T22:26:45.352Z,14.70
2023-05-20T22:29:12.362Z,14.60
2023-05-20T22:31:39.293Z,14.60
2023-05-20T22:34:06.945Z,14.60
2023-05-20T22:36:34.317Z,14.60
2023-05-20T22:39:02.385Z,15.10
2023-05-20T22:41:29.393Z,14.60
2023-05-20T22:43:56.878Z,14.50
2023-05-20T22:46:24.651Z,14.50
2023-05-20T22:51:24.503Z,14.50
2023-05-20T22:53:51.514Z,14.50
2023-05-20T22:56:18.896Z,14.50
2023-05-20T22:58:46.005Z,14.50
2023-05-20T23:01:13.371Z,14.40
2023-05-20T23:03:40.542Z,14.40
2023-05-20T23:06:07.668Z,14.40
2023-05-20T23:08:34.535Z,14.40
2023-05-20T23:11:01.425Z,14.40
2023-05-20T23:13:28.255Z,14.30
2023-05-20T23:18:22.516Z,14.30
2023-05-20T23:20:50.354Z,14.30
2023-05-20T23:23:19.267Z,14.30
2023-05-20T23:25:52.189Z,14.30
2023-05-20T23:28:19.071Z,14.30
2023-05-20T23:30:46.146Z,14.30
2023-05-20T23:33:14.989Z,14.30
2023-05-20T23:35:44.110Z,14.30
2023-05-20T23:38:10.963Z,14.30
2023-05-20T23:40:37.902Z,14.30
2023-05-20T23:43:04.749Z,14.30
2023-05-20T23:45:31.595Z,14.40
2023-05-20T23:48:01.150Z,14.40
2023-05-20T23:50:28.036Z,14.40
2023-05-20T23:52:54.977Z,14.40
2023-05-20T23:55:22.384Z,14.40
2023-05-20T23:57:49.893Z,14.40
